sensor_id;sensor_type;location;lat;lon;timestamp;P1;durP1;ratioP1;P2;durP2;ratioP2
32333;SDS011;18810;53.040;8.850;2022-09-01T00:01:09;3.88;;;1.42;;
32333;SDS011;18810;53.040;8.850;2022-09-01T00:03:42;3.20;;;1.60;;
32333;SDS011;18810;53.040;8.850;2022-09-01T00:06:11;2.10;;;1.40;;
32333;SDS011;18810;53.040;8.850;2022-09-01T00:08:36;2.67;;;1.67;;
32333;SDS011;18810;53.040;8.850;2022-09-01T00:11:02;2.92;;;1.52;;
32333;SDS011;18810;53.040;8.850;2022-09-01T00:13:28;1.80;;;1.58;;
32333;SDS011;18810;53.040;8.850;2022-09-01T00:15:57;1.50;;;1.40;;
32333;SDS011;18810;53.040;8.850;2022-09-01T00:18:24;3.92;;;1.77;;
32333;SDS011;18810;53.040;8.850;2022-09-01T00:20:50;1.70;;;1.60;;
32333;SDS011;18810;53.040;8.850;2022-09-01T00:23:16;3.40;;;1.60;;
32333;SDS011;18810;53.040;8.850;2022-09-01T00:25:42;2.15;;;1.60;;
32333;SDS011;18810;53.040;8.850;2022-09-01T00:28:08;2.50;;;1.40;;
32333;SDS011;18810;53.040;8.850;2022-09-01T00:30:34;2.15;;;1.50;;
32333;SDS011;18810;53.040;8.850;2022-09-01T00:33:00;2.90;;;1.60;;
32333;SDS011;18810;53.040;8.850;2022-09-01T00:35:27;3.53;;;1.60;;
32333;SDS011;18810;53.040;8.850;2022-09-01T00:37:52;3.55;;;2.00;;
32333;SDS011;18810;53.040;8.850;2022-09-01T00:40:18;2.88;;;1.77;;
32333;SDS011;18810;53.040;8.850;2022-09-01T00:42:44;2.35;;;1.80;;
32333;SDS011;18810;53.040;8.850;2022-09-01T00:45:11;3.95;;;1.77;;
32333;SDS011;18810;53.040;8.850;2022-09-01T00:47:37;1.67;;;1.50;;
32333;SDS011;18810;53.040;8.850;2022-09-01T00:50:04;2.88;;;1.88;;
32333;SDS011;18810;53.040;8.850;2022-09-01T00:52:33;2.70;;;1.58;;
32333;SDS011;18810;53.040;8.850;2022-09-01T00:55:12;4.03;;;1.63;;
32333;SDS011;18810;53.040;8.850;2022-09-01T00:57:41;1.80;;;1.70;;
32333;SDS011;18810;53.040;8.850;2022-09-01T01:00:18;7.38;;;1.60;;
32333;SDS011;18810;53.040;8.850;2022-09-01T01:02:47;5.90;;;1.60;;
32333;SDS011;18810;53.040;8.850;2022-09-01T01:05:19;2.28;;;1.60;;
32333;SDS011;18810;53.040;8.850;2022-09-01T01:07:52;2.60;;;1.85;;
32333;SDS011;18810;53.040;8.850;2022-09-01T01:10:18;2.88;;;1.55;;
32333;SDS011;18810;53.040;8.850;2022-09-01T01:12:47;1.70;;;1.60;;
32333;SDS011;18810;53.040;8.850;2022-09-01T01:15:15;2.45;;;1.38;;
32333;SDS011;18810;53.040;8.850;2022-09-01T01:17:42;2.00;;;1.38;;
32333;SDS011;18810;53.040;8.850;2022-09-01T01:20:09;2.20;;;1.30;;
32333;SDS011;18810;53.040;8.850;2022-09-01T01:26:01;2.20;;;1.50;;
32333;SDS011;18810;53.040;8.850;2022-09-01T01:28:32;3.50;;;1.30;;
32333;SDS011;18810;53.040;8.850;2022-09-01T01:31:03;2.95;;;1.50;;
32333;SDS011;18810;53.040;8.850;2022-09-01T01:33:49;1.80;;;1.40;;
32333;SDS011;18810;53.040;8.850;2022-09-01T01:36:21;1.73;;;1.63;;
32333;SDS011;18810;53.040;8.850;2022-09-01T01:39:11;1.85;;;1.42;;
32333;SDS011;18810;53.040;8.850;2022-09-01T01:41:45;1.60;;;1.35;;
32333;SDS011;18810;53.040;8.850;2022-09-01T01:44:13;1.52;;;1.42;;
32333;SDS011;18810;53.040;8.850;2022-09-01T01:46:48;1.70;;;1.60;;
32333;SDS011;18810;53.040;8.850;2022-09-01T01:49:16;3.30;;;1.67;;
32333;SDS011;18810;53.040;8.850;2022-09-01T01:51:45;2.17;;;1.40;;
32333;SDS011;18810;53.040;8.850;2022-09-01T01:54:12;2.10;;;1.77;;
32333;SDS011;18810;53.040;8.850;2022-09-01T01:56:39;3.10;;;2.20;;
32333;SDS011;18810;53.040;8.850;2022-09-01T01:59:06;2.00;;;1.50;;
32333;SDS011;18810;53.040;8.850;2022-09-01T02:01:39;3.05;;;1.92;;
32333;SDS011;18810;53.040;8.850;2022-09-01T02:04:06;2.30;;;2.08;;
32333;SDS011;18810;53.040;8.850;2022-09-01T02:06:35;4.97;;;2.15;;
32333;SDS011;18810;53.040;8.850;2022-09-01T02:09:04;2.58;;;1.75;;
32333;SDS011;18810;53.040;8.850;2022-09-01T02:11:31;4.20;;;1.67;;
32333;SDS011;18810;53.040;8.850;2022-09-01T02:14:02;3.42;;;1.90;;
32333;SDS011;18810;53.040;8.850;2022-09-01T02:16:29;2.78;;;1.80;;
32333;SDS011;18810;53.040;8.850;2022-09-01T02:18:57;5.85;;;1.88;;
32333;SDS011;18810;53.040;8.850;2022-09-01T02:21:23;2.10;;;1.50;;
32333;SDS011;18810;53.040;8.850;2022-09-01T02:23:52;2.17;;;1.67;;
32333;SDS011;18810;53.040;8.850;2022-09-01T02:26:24;3.72;;;2.10;;
32333;SDS011;18810;53.040;8.850;2022-09-01T02:29:03;2.35;;;1.92;;
32333;SDS011;18810;53.040;8.850;2022-09-01T02:31:32;3.58;;;2.28;;
32333;SDS011;18810;53.040;8.850;2022-09-01T02:34:05;3.50;;;1.98;;
32333;SDS011;18810;53.040;8.850;2022-09-01T02:36:38;4.72;;;1.98;;
32333;SDS011;18810;53.040;8.850;2022-09-01T02:39:08;2.85;;;2.05;;
32333;SDS011;18810;53.040;8.850;2022-09-01T02:41:35;4.22;;;2.10;;
32333;SDS011;18810;53.040;8.850;2022-09-01T02:44:02;4.90;;;1.92;;
32333;SDS011;18810;53.040;8.850;2022-09-01T02:46:36;2.70;;;1.90;;
32333;SDS011;18810;53.040;8.850;2022-09-01T02:49:05;5.90;;;2.47;;
32333;SDS011;18810;53.040;8.850;2022-09-01T02:51:39;2.97;;;2.20;;
32333;SDS011;18810;53.040;8.850;2022-09-01T02:54:07;3.17;;;2.35;;
32333;SDS011;18810;53.040;8.850;2022-09-01T02:56:33;2.58;;;2.00;;
32333;SDS011;18810;53.040;8.850;2022-09-01T02:58:59;2.65;;;2.20;;
32333;SDS011;18810;53.040;8.850;2022-09-01T03:01:28;2.10;;;1.90;;
32333;SDS011;18810;53.040;8.850;2022-09-01T03:03:57;3.45;;;2.05;;
32333;SDS011;18810;53.040;8.850;2022-09-01T03:06:25;2.20;;;2.00;;
32333;SDS011;18810;53.040;8.850;2022-09-01T03:08:53;4.18;;;2.35;;
32333;SDS011;18810;53.040;8.850;2022-09-01T03:11:21;3.80;;;1.90;;
32333;SDS011;18810;53.040;8.850;2022-09-01T03:13:48;2.05;;;1.85;;
32333;SDS011;18810;53.040;8.850;2022-09-01T03:16:14;2.17;;;1.85;;
32333;SDS011;18810;53.040;8.850;2022-09-01T03:18:40;3.00;;;2.30;;
32333;SDS011;18810;53.040;8.850;2022-09-01T03:21:07;2.47;;;2.00;;
32333;SDS011;18810;53.040;8.850;2022-09-01T03:23:44;3.92;;;2.35;;
32333;SDS011;18810;53.040;8.850;2022-09-01T03:26:11;2.67;;;1.98;;
32333;SDS011;18810;53.040;8.850;2022-09-01T03:28:38;2.30;;;2.10;;
32333;SDS011;18810;53.040;8.850;2022-09-01T03:31:04;4.00;;;1.90;;
32333;SDS011;18810;53.040;8.850;2022-09-01T03:33:31;4.00;;;2.30;;
32333;SDS011;18810;53.040;8.850;2022-09-01T03:35:58;2.33;;;2.10;;
32333;SDS011;18810;53.040;8.850;2022-09-01T03:38:24;2.30;;;2.10;;
32333;SDS011;18810;53.040;8.850;2022-09-01T03:40:52;3.72;;;2.38;;
32333;SDS011;18810;53.040;8.850;2022-09-01T03:43:23;3.00;;;2.30;;
32333;SDS011;18810;53.040;8.850;2022-09-01T03:45:51;2.30;;;2.10;;
32333;SDS011;18810;53.040;8.850;2022-09-01T03:48:20;3.97;;;2.30;;
32333;SDS011;18810;53.040;8.850;2022-09-01T03:50:47;2.33;;;2.05;;
32333;SDS011;18810;53.040;8.850;2022-09-01T03:53:15;2.55;;;2.35;;
32333;SDS011;18810;53.040;8.850;2022-09-01T03:55:45;2.90;;;2.33;;
32333;SDS011;18810;53.040;8.850;2022-09-01T03:58:12;3.40;;;2.40;;
32333;SDS011;18810;53.040;8.850;2022-09-01T04:00:43;2.38;;;2.17;;
32333;SDS011;18810;53.040;8.850;2022-09-01T04:03:12;2.88;;;2.53;;
32333;SDS011;18810;53.040;8.850;2022-09-01T04:05:41;3.65;;;2.13;;
32333;SDS011;18810;53.040;8.850;2022-09-01T04:08:08;2.67;;;2.20;;
32333;SDS011;18810;53.040;8.850;2022-09-01T04:10:47;3.90;;;2.70;;
32333;SDS011;18810;53.040;8.850;2022-09-01T04:13:25;4.05;;;2.50;;
32333;SDS011;18810;53.040;8.850;2022-09-01T04:15:54;4.80;;;2.42;;
32333;SDS011;18810;53.040;8.850;2022-09-01T04:18:21;3.55;;;2.90;;
32333;SDS011;18810;53.040;8.850;2022-09-01T04:23:18;3.25;;;2.67;;
32333;SDS011;18810;53.040;8.850;2022-09-01T04:25:50;2.97;;;2.65;;
32333;SDS011;18810;53.040;8.850;2022-09-01T04:30:53;7.53;;;3.20;;
32333;SDS011;18810;53.040;8.850;2022-09-01T04:33:21;3.97;;;3.00;;
32333;SDS011;18810;53.040;8.850;2022-09-01T04:35:52;2.78;;;2.58;;
32333;SDS011;18810;53.040;8.850;2022-09-01T04:38:22;6.63;;;2.50;;
32333;SDS011;18810;53.040;8.850;2022-09-01T04:40:49;4.47;;;3.05;;
32333;SDS011;18810;53.040;8.850;2022-09-01T04:43:15;3.97;;;3.20;;
32333;SDS011;18810;53.040;8.850;2022-09-01T04:45:41;3.30;;;2.70;;
32333;SDS011;18810;53.040;8.850;2022-09-01T04:48:07;4.68;;;3.08;;
32333;SDS011;18810;53.040;8.850;2022-09-01T04:50:33;5.10;;;3.17;;
32333;SDS011;18810;53.040;8.850;2022-09-01T04:53:00;3.60;;;3.30;;
32333;SDS011;18810;53.040;8.850;2022-09-01T04:55:27;7.63;;;3.40;;
32333;SDS011;18810;53.040;8.850;2022-09-01T04:57:55;3.83;;;3.50;;
32333;SDS011;18810;53.040;8.850;2022-09-01T05:00:23;3.63;;;3.20;;
32333;SDS011;18810;53.040;8.850;2022-09-01T05:02:54;6.18;;;3.53;;
32333;SDS011;18810;53.040;8.850;2022-09-01T05:05:29;3.47;;;3.17;;
32333;SDS011;18810;53.040;8.850;2022-09-01T05:08:04;4.32;;;3.53;;
32333;SDS011;18810;53.040;8.850;2022-09-01T05:10:31;5.43;;;3.38;;
32333;SDS011;18810;53.040;8.850;2022-09-01T05:12:58;6.28;;;4.30;;
32333;SDS011;18810;53.040;8.850;2022-09-01T05:15:25;6.78;;;4.00;;
32333;SDS011;18810;53.040;8.850;2022-09-01T05:17:51;6.50;;;3.92;;
32333;SDS011;18810;53.040;8.850;2022-09-01T05:20:20;7.15;;;4.00;;
32333;SDS011;18810;53.040;8.850;2022-09-01T05:22:46;6.22;;;4.05;;
32333;SDS011;18810;53.040;8.850;2022-09-01T05:25:11;7.07;;;4.00;;
32333;SDS011;18810;53.040;8.850;2022-09-01T05:27:39;7.65;;;3.53;;
32333;SDS011;18810;53.040;8.850;2022-09-01T05:30:06;12.48;;;4.72;;
32333;SDS011;18810;53.040;8.850;2022-09-01T05:32:35;9.73;;;4.40;;
32333;SDS011;18810;53.040;8.850;2022-09-01T05:35:03;6.05;;;4.03;;
32333;SDS011;18810;53.040;8.850;2022-09-01T05:37:33;11.35;;;4.72;;
32333;SDS011;18810;53.040;8.850;2022-09-01T05:40:02;6.72;;;3.80;;
32333;SDS011;18810;53.040;8.850;2022-09-01T05:42:30;6.47;;;4.00;;
32333;SDS011;18810;53.040;8.850;2022-09-01T05:44:56;7.75;;;3.67;;
32333;SDS011;18810;53.040;8.850;2022-09-01T05:47:22;5.30;;;3.58;;
32333;SDS011;18810;53.040;8.850;2022-09-01T05:49:50;3.88;;;3.40;;
32333;SDS011;18810;53.040;8.850;2022-09-01T05:52:17;4.97;;;3.33;;
32333;SDS011;18810;53.040;8.850;2022-09-01T05:54:49;4.05;;;2.80;;
32333;SDS011;18810;53.040;8.850;2022-09-01T05:57:16;6.40;;;3.17;;
32333;SDS011;18810;53.040;8.850;2022-09-01T05:59:43;3.20;;;2.30;;
32333;SDS011;18810;53.040;8.850;2022-09-01T06:02:13;3.20;;;2.40;;
32333;SDS011;18810;53.040;8.850;2022-09-01T06:04:39;4.25;;;2.53;;
32333;SDS011;18810;53.040;8.850;2022-09-01T06:07:05;2.78;;;2.20;;
32333;SDS011;18810;53.040;8.850;2022-09-01T06:09:41;4.68;;;2.67;;
32333;SDS011;18810;53.040;8.850;2022-09-01T06:12:09;3.95;;;2.42;;
32333;SDS011;18810;53.040;8.850;2022-09-01T06:14:41;3.28;;;2.28;;
32333;SDS011;18810;53.040;8.850;2022-09-01T06:17:08;3.65;;;2.70;;
32333;SDS011;18810;53.040;8.850;2022-09-01T06:19:36;2.58;;;2.13;;
32333;SDS011;18810;53.040;8.850;2022-09-01T06:22:04;4.80;;;2.13;;
32333;SDS011;18810;53.040;8.850;2022-09-01T06:24:30;2.95;;;2.33;;
32333;SDS011;18810;53.040;8.850;2022-09-01T06:26:56;5.85;;;2.22;;
32333;SDS011;18810;53.040;8.850;2022-09-01T06:29:22;3.60;;;2.63;;
32333;SDS011;18810;53.040;8.850;2022-09-01T06:31:47;5.35;;;2.40;;
32333;SDS011;18810;53.040;8.850;2022-09-01T06:34:17;3.97;;;2.35;;
32333;SDS011;18810;53.040;8.850;2022-09-01T06:36:44;4.43;;;2.45;;
32333;SDS011;18810;53.040;8.850;2022-09-01T06:39:11;8.63;;;2.40;;
32333;SDS011;18810;53.040;8.850;2022-09-01T06:41:44;3.72;;;2.60;;
32333;SDS011;18810;53.040;8.850;2022-09-01T06:44:16;5.53;;;2.10;;
32333;SDS011;18810;53.040;8.850;2022-09-01T06:46:52;2.70;;;2.17;;
32333;SDS011;18810;53.040;8.850;2022-09-01T06:49:21;3.17;;;2.47;;
32333;SDS011;18810;53.040;8.850;2022-09-01T06:52:00;3.60;;;2.00;;
32333;SDS011;18810;53.040;8.850;2022-09-01T06:54:28;4.40;;;1.95;;
32333;SDS011;18810;53.040;8.850;2022-09-01T06:56:57;4.03;;;2.10;;
32333;SDS011;18810;53.040;8.850;2022-09-01T06:59:26;4.10;;;2.00;;
32333;SDS011;18810;53.040;8.850;2022-09-01T07:01:56;3.50;;;1.80;;
32333;SDS011;18810;53.040;8.850;2022-09-01T07:04:25;4.15;;;2.00;;
32333;SDS011;18810;53.040;8.850;2022-09-01T07:06:53;4.15;;;2.58;;
32333;SDS011;18810;53.040;8.850;2022-09-01T07:09:19;5.75;;;2.40;;
32333;SDS011;18810;53.040;8.850;2022-09-01T07:11:45;2.83;;;1.85;;
32333;SDS011;18810;53.040;8.850;2022-09-01T07:14:11;2.95;;;1.77;;
32333;SDS011;18810;53.040;8.850;2022-09-01T07:16:40;2.65;;;1.48;;
32333;SDS011;18810;53.040;8.850;2022-09-01T07:19:06;2.65;;;1.60;;
32333;SDS011;18810;53.040;8.850;2022-09-01T07:21:40;3.03;;;1.67;;
32333;SDS011;18810;53.040;8.850;2022-09-01T07:24:08;4.70;;;1.45;;
32333;SDS011;18810;53.040;8.850;2022-09-01T07:26:35;1.83;;;1.20;;
32333;SDS011;18810;53.040;8.850;2022-09-01T07:29:05;3.45;;;1.60;;
32333;SDS011;18810;53.040;8.850;2022-09-01T07:31:33;1.58;;;1.33;;
32333;SDS011;18810;53.040;8.850;2022-09-01T07:34:03;2.83;;;1.33;;
32333;SDS011;18810;53.040;8.850;2022-09-01T07:36:31;1.30;;;1.20;;
32333;SDS011;18810;53.040;8.850;2022-09-01T07:38:57;1.98;;;1.40;;
32333;SDS011;18810;53.040;8.850;2022-09-01T07:41:25;1.35;;;1.17;;
32333;SDS011;18810;53.040;8.850;2022-09-01T07:43:52;2.05;;;1.10;;
32333;SDS011;18810;53.040;8.850;2022-09-01T07:46:21;1.23;;;1.10;;
32333;SDS011;18810;53.040;8.850;2022-09-01T07:48:48;1.20;;;1.10;;
32333;SDS011;18810;53.040;8.850;2022-09-01T07:51:16;3.08;;;1.13;;
32333;SDS011;18810;53.040;8.850;2022-09-01T07:53:44;2.90;;;1.08;;
32333;SDS011;18810;53.040;8.850;2022-09-01T07:56:15;1.33;;;0.98;;
32333;SDS011;18810;53.040;8.850;2022-09-01T07:58:43;3.47;;;1.38;;
32333;SDS011;18810;53.040;8.850;2022-09-01T08:01:10;1.33;;;1.10;;
32333;SDS011;18810;53.040;8.850;2022-09-01T08:03:43;2.15;;;1.38;;
32333;SDS011;18810;53.040;8.850;2022-09-01T08:06:12;2.13;;;1.10;;
32333;SDS011;18810;53.040;8.850;2022-09-01T08:08:39;1.33;;;1.15;;
32333;SDS011;18810;53.040;8.850;2022-09-01T08:11:06;1.90;;;1.00;;
32333;SDS011;18810;53.040;8.850;2022-09-01T08:13:33;5.30;;;1.25;;
32333;SDS011;18810;53.040;8.850;2022-09-01T08:16:02;1.48;;;1.02;;
32333;SDS011;18810;53.040;8.850;2022-09-01T08:18:30;1.40;;;1.00;;
32333;SDS011;18810;53.040;8.850;2022-09-01T08:20:56;4.53;;;1.20;;
32333;SDS011;18810;53.040;8.850;2022-09-01T08:23:22;1.55;;;0.82;;
32333;SDS011;18810;53.040;8.850;2022-09-01T08:25:51;2.05;;;1.23;;
32333;SDS011;18810;53.040;8.850;2022-09-01T08:28:18;0.95;;;0.90;;
32333;SDS011;18810;53.040;8.850;2022-09-01T08:30:45;1.05;;;1.00;;
32333;SDS011;18810;53.040;8.850;2022-09-01T08:33:12;2.53;;;1.08;;
32333;SDS011;18810;53.040;8.850;2022-09-01T08:35:39;1.45;;;1.20;;
32333;SDS011;18810;53.040;8.850;2022-09-01T08:38:07;1.80;;;0.88;;
32333;SDS011;18810;53.040;8.850;2022-09-01T08:40:33;0.77;;;0.77;;
32333;SDS011;18810;53.040;8.850;2022-09-01T08:43:17;1.85;;;0.82;;
32333;SDS011;18810;53.040;8.850;2022-09-01T08:45:57;4.38;;;1.15;;
32333;SDS011;18810;53.040;8.850;2022-09-01T08:48:36;2.17;;;0.95;;
32333;SDS011;18810;53.040;8.850;2022-09-01T08:51:19;0.95;;;0.90;;
32333;SDS011;18810;53.040;8.850;2022-09-01T08:56:57;2.30;;;0.90;;
32333;SDS011;18810;53.040;8.850;2022-09-01T08:59:25;1.20;;;0.93;;
32333;SDS011;18810;53.040;8.850;2022-09-01T09:02:01;1.45;;;0.98;;
32333;SDS011;18810;53.040;8.850;2022-09-01T09:15:49;0.98;;;0.88;;
32333;SDS011;18810;53.040;8.850;2022-09-01T09:20:56;1.48;;;0.80;;
32333;SDS011;18810;53.040;8.850;2022-09-01T09:23:33;0.85;;;0.70;;
32333;SDS011;18810;53.040;8.850;2022-09-01T09:26:03;0.80;;;0.70;;
32333;SDS011;18810;53.040;8.850;2022-09-01T09:28:29;1.00;;;0.88;;
32333;SDS011;18810;53.040;8.850;2022-09-01T09:33:48;1.42;;;0.80;;
32333;SDS011;18810;53.040;8.850;2022-09-01T09:36:16;1.08;;;0.80;;
32333;SDS011;18810;53.040;8.850;2022-09-01T09:38:54;1.80;;;0.82;;
32333;SDS011;18810;53.040;8.850;2022-09-01T09:41:38;0.93;;;0.60;;
32333;SDS011;18810;53.040;8.850;2022-09-01T09:46:50;0.88;;;0.63;;
32333;SDS011;18810;53.040;8.850;2022-09-01T09:49:21;1.08;;;1.00;;
32333;SDS011;18810;53.040;8.850;2022-09-01T09:52:11;0.90;;;0.90;;
32333;SDS011;18810;53.040;8.850;2022-09-01T09:57:31;0.75;;;0.68;;
32333;SDS011;18810;53.040;8.850;2022-09-01T10:02:34;1.33;;;1.00;;
32333;SDS011;18810;53.040;8.850;2022-09-01T10:07:54;1.63;;;0.88;;
32333;SDS011;18810;53.040;8.850;2022-09-01T10:13:07;1.13;;;0.60;;
32333;SDS011;18810;53.040;8.850;2022-09-01T10:15:38;1.23;;;0.80;;
32333;SDS011;18810;53.040;8.850;2022-09-01T10:18:09;1.10;;;0.70;;
32333;SDS011;18810;53.040;8.850;2022-09-01T10:20:40;1.00;;;0.88;;
32333;SDS011;18810;53.040;8.850;2022-09-01T10:23:17;1.65;;;0.70;;
32333;SDS011;18810;53.040;8.850;2022-09-01T10:25:43;2.92;;;0.90;;
32333;SDS011;18810;53.040;8.850;2022-09-01T10:28:11;1.23;;;0.90;;
32333;SDS011;18810;53.040;8.850;2022-09-01T10:30:43;2.38;;;0.90;;
32333;SDS011;18810;53.040;8.850;2022-09-01T10:33:12;0.60;;;0.60;;
32333;SDS011;18810;53.040;8.850;2022-09-01T10:35:44;1.25;;;0.88;;
32333;SDS011;18810;53.040;8.850;2022-09-01T10:38:16;1.50;;;1.00;;
32333;SDS011;18810;53.040;8.850;2022-09-01T10:40:48;1.55;;;0.88;;
32333;SDS011;18810;53.040;8.850;2022-09-01T10:56:21;0.90;;;0.80;;
32333;SDS011;18810;53.040;8.850;2022-09-01T11:07:00;0.88;;;0.63;;
32333;SDS011;18810;53.040;8.850;2022-09-01T11:09:37;1.08;;;0.80;;
32333;SDS011;18810;53.040;8.850;2022-09-01T11:12:11;0.90;;;0.80;;
32333;SDS011;18810;53.040;8.850;2022-09-01T11:14:56;2.13;;;0.80;;
32333;SDS011;18810;53.040;8.850;2022-09-01T11:32:57;2.70;;;0.70;;
32333;SDS011;18810;53.040;8.850;2022-09-01T11:35:42;1.40;;;0.68;;
32333;SDS011;18810;53.040;8.850;2022-09-01T11:38:11;1.15;;;0.70;;
32333;SDS011;18810;53.040;8.850;2022-09-01T11:40:40;1.92;;;0.68;;
32333;SDS011;18810;53.040;8.850;2022-09-01T11:43:08;1.67;;;1.10;;
32333;SDS011;18810;53.040;8.850;2022-09-01T11:48:44;2.00;;;0.90;;
32333;SDS011;18810;53.040;8.850;2022-09-01T11:51:11;0.60;;;0.60;;
32333;SDS011;18810;53.040;8.850;2022-09-01T11:53:37;0.45;;;0.45;;
32333;SDS011;18810;53.040;8.850;2022-09-01T11:56:13;1.15;;;0.60;;
32333;SDS011;18810;53.040;8.850;2022-09-01T11:58:48;1.48;;;0.70;;
32333;SDS011;18810;53.040;8.850;2022-09-01T12:01:15;2.67;;;0.80;;
32333;SDS011;18810;53.040;8.850;2022-09-01T12:03:55;3.20;;;1.13;;
32333;SDS011;18810;53.040;8.850;2022-09-01T12:06:27;1.65;;;1.05;;
32333;SDS011;18810;53.040;8.850;2022-09-01T12:11:25;1.75;;;0.90;;
32333;SDS011;18810;53.040;8.850;2022-09-01T12:14:05;2.10;;;1.00;;
32333;SDS011;18810;53.040;8.850;2022-09-01T12:16:33;1.25;;;1.15;;
32333;SDS011;18810;53.040;8.850;2022-09-01T12:19:01;2.72;;;1.17;;
32333;SDS011;18810;53.040;8.850;2022-09-01T12:21:29;2.50;;;1.17;;
32333;SDS011;18810;53.040;8.850;2022-09-01T12:24:17;2.03;;;1.10;;
32333;SDS011;18810;53.040;8.850;2022-09-01T12:26:45;1.25;;;0.75;;
32333;SDS011;18810;53.040;8.850;2022-09-01T12:29:13;2.05;;;0.90;;
32333;SDS011;18810;53.040;8.850;2022-09-01T12:31:40;4.88;;;1.02;;
32333;SDS011;18810;53.040;8.850;2022-09-01T12:39:47;1.10;;;0.95;;
32333;SDS011;18810;53.040;8.850;2022-09-01T12:44:44;1.27;;;0.88;;
32333;SDS011;18810;53.040;8.850;2022-09-01T12:47:12;1.00;;;0.80;;
32333;SDS011;18810;53.040;8.850;2022-09-01T12:50:31;2.27;;;0.90;;
32333;SDS011;18810;53.040;8.850;2022-09-01T12:52:57;1.98;;;0.95;;
32333;SDS011;18810;53.040;8.850;2022-09-01T12:55:33;0.63;;;0.63;;
32333;SDS011;18810;53.040;8.850;2022-09-01T12:58:01;0.82;;;0.68;;
32333;SDS011;18810;53.040;8.850;2022-09-01T13:00:30;1.05;;;0.70;;
32333;SDS011;18810;53.040;8.850;2022-09-01T13:07:59;0.80;;;0.80;;
32333;SDS011;18810;53.040;8.850;2022-09-01T13:10:28;1.02;;;0.80;;
32333;SDS011;18810;53.040;8.850;2022-09-01T13:13:04;1.08;;;0.73;;
32333;SDS011;18810;53.040;8.850;2022-09-01T13:15:31;1.38;;;1.00;;
32333;SDS011;18810;53.040;8.850;2022-09-01T13:17:58;1.85;;;1.00;;
32333;SDS011;18810;53.040;8.850;2022-09-01T13:20:23;1.90;;;1.08;;
32333;SDS011;18810;53.040;8.850;2022-09-01T13:22:49;2.30;;;1.10;;
32333;SDS011;18810;53.040;8.850;2022-09-01T13:25:16;2.25;;;1.10;;
32333;SDS011;18810;53.040;8.850;2022-09-01T13:27:44;2.67;;;1.25;;
32333;SDS011;18810;53.040;8.850;2022-09-01T13:30:12;3.97;;;1.60;;
32333;SDS011;18810;53.040;8.850;2022-09-01T13:32:42;3.42;;;1.10;;
32333;SDS011;18810;53.040;8.850;2022-09-01T13:35:10;3.03;;;1.20;;
32333;SDS011;18810;53.040;8.850;2022-09-01T13:37:36;2.17;;;1.02;;
32333;SDS011;18810;53.040;8.850;2022-09-01T13:40:03;0.90;;;0.90;;
32333;SDS011;18810;53.040;8.850;2022-09-01T13:42:32;0.90;;;0.83;;
32333;SDS011;18810;53.040;8.850;2022-09-01T13:44:58;2.10;;;0.90;;
32333;SDS011;18810;53.040;8.850;2022-09-01T13:47:25;1.35;;;0.75;;
32333;SDS011;18810;53.040;8.850;2022-09-01T13:49:51;1.10;;;1.00;;
32333;SDS011;18810;53.040;8.850;2022-09-01T13:52:17;1.52;;;1.00;;
32333;SDS011;18810;53.040;8.850;2022-09-01T13:54:43;2.03;;;0.98;;
32333;SDS011;18810;53.040;8.850;2022-09-01T13:57:09;1.13;;;0.90;;
32333;SDS011;18810;53.040;8.850;2022-09-01T13:59:35;2.35;;;0.80;;
32333;SDS011;18810;53.040;8.850;2022-09-01T14:02:03;1.00;;;0.90;;
32333;SDS011;18810;53.040;8.850;2022-09-01T14:04:29;1.33;;;0.90;;
32333;SDS011;18810;53.040;8.850;2022-09-01T14:06:55;3.25;;;0.80;;
32333;SDS011;18810;53.040;8.850;2022-09-01T14:09:21;1.23;;;0.80;;
32333;SDS011;18810;53.040;8.850;2022-09-01T14:11:47;1.60;;;0.85;;
32333;SDS011;18810;53.040;8.850;2022-09-01T14:14:16;1.85;;;0.85;;
32333;SDS011;18810;53.040;8.850;2022-09-01T14:16:45;2.35;;;0.77;;
32333;SDS011;18810;53.040;8.850;2022-09-01T14:19:11;2.92;;;0.90;;
32333;SDS011;18810;53.040;8.850;2022-09-01T14:21:37;2.03;;;0.80;;
32333;SDS011;18810;53.040;8.850;2022-09-01T14:24:03;1.10;;;0.57;;
32333;SDS011;18810;53.040;8.850;2022-09-01T14:26:29;0.80;;;0.80;;
32333;SDS011;18810;53.040;8.850;2022-09-01T14:28:55;2.85;;;0.82;;
32333;SDS011;18810;53.040;8.850;2022-09-01T14:31:22;0.70;;;0.70;;
32333;SDS011;18810;53.040;8.850;2022-09-01T14:33:48;0.85;;;0.82;;
32333;SDS011;18810;53.040;8.850;2022-09-01T14:36:19;1.38;;;0.70;;
32333;SDS011;18810;53.040;8.850;2022-09-01T14:38:49;1.38;;;0.80;;
32333;SDS011;18810;53.040;8.850;2022-09-01T14:41:17;1.48;;;0.60;;
32333;SDS011;18810;53.040;8.850;2022-09-01T14:43:49;1.35;;;0.63;;
32333;SDS011;18810;53.040;8.850;2022-09-01T14:46:15;0.77;;;0.60;;
32333;SDS011;18810;53.040;8.850;2022-09-01T14:48:42;1.67;;;0.60;;
32333;SDS011;18810;53.040;8.850;2022-09-01T14:51:16;3.13;;;0.68;;
32333;SDS011;18810;53.040;8.850;2022-09-01T14:53:53;0.77;;;0.60;;
32333;SDS011;18810;53.040;8.850;2022-09-01T14:56:19;1.02;;;0.80;;
32333;SDS011;18810;53.040;8.850;2022-09-01T14:58:47;0.82;;;0.70;;
32333;SDS011;18810;53.040;8.850;2022-09-01T15:01:14;2.92;;;0.73;;
32333;SDS011;18810;53.040;8.850;2022-09-01T15:03:41;2.45;;;0.90;;
32333;SDS011;18810;53.040;8.850;2022-09-01T15:06:10;0.90;;;0.90;;
32333;SDS011;18810;53.040;8.850;2022-09-01T15:08:39;3.10;;;0.80;;
32333;SDS011;18810;53.040;8.850;2022-09-01T15:11:07;1.30;;;0.77;;
32333;SDS011;18810;53.040;8.850;2022-09-01T15:13:34;0.60;;;0.60;;
32333;SDS011;18810;53.040;8.850;2022-09-01T15:16:00;2.08;;;0.90;;
32333;SDS011;18810;53.040;8.850;2022-09-01T15:18:25;0.80;;;0.80;;
32333;SDS011;18810;53.040;8.850;2022-09-01T15:20:51;0.88;;;0.80;;
32333;SDS011;18810;53.040;8.850;2022-09-01T15:23:19;0.85;;;0.80;;
32333;SDS011;18810;53.040;8.850;2022-09-01T15:25:47;1.65;;;0.63;;
32333;SDS011;18810;53.040;8.850;2022-09-01T15:28:15;2.13;;;0.60;;
32333;SDS011;18810;53.040;8.850;2022-09-01T15:30:41;2.20;;;0.60;;
32333;SDS011;18810;53.040;8.850;2022-09-01T15:33:08;0.80;;;0.70;;
32333;SDS011;18810;53.040;8.850;2022-09-01T15:35:34;0.90;;;0.75;;
32333;SDS011;18810;53.040;8.850;2022-09-01T15:38:00;1.00;;;0.65;;
32333;SDS011;18810;53.040;8.850;2022-09-01T15:40:26;1.95;;;0.95;;
32333;SDS011;18810;53.040;8.850;2022-09-01T15:42:52;1.15;;;1.00;;
32333;SDS011;18810;53.040;8.850;2022-09-01T15:45:19;1.45;;;1.08;;
32333;SDS011;18810;53.040;8.850;2022-09-01T15:47:46;1.48;;;1.00;;
32333;SDS011;18810;53.040;8.850;2022-09-01T15:50:13;1.05;;;0.93;;
32333;SDS011;18810;53.040;8.850;2022-09-01T15:52:51;1.67;;;0.60;;
32333;SDS011;18810;53.040;8.850;2022-09-01T15:55:26;2.10;;;0.90;;
32333;SDS011;18810;53.040;8.850;2022-09-01T15:57:54;0.98;;;0.73;;
32333;SDS011;18810;53.040;8.850;2022-09-01T16:00:21;0.80;;;0.80;;
32333;SDS011;18810;53.040;8.850;2022-09-01T16:02:48;0.80;;;0.70;;
32333;SDS011;18810;53.040;8.850;2022-09-01T16:05:13;0.77;;;0.77;;
32333;SDS011;18810;53.040;8.850;2022-09-01T16:07:40;0.70;;;0.70;;
32333;SDS011;18810;53.040;8.850;2022-09-01T16:10:06;2.05;;;0.80;;
32333;SDS011;18810;53.040;8.850;2022-09-01T16:12:40;0.70;;;0.70;;
32333;SDS011;18810;53.040;8.850;2022-09-01T16:15:08;1.10;;;1.00;;
32333;SDS011;18810;53.040;8.850;2022-09-01T16:23:15;2.60;;;0.70;;
32333;SDS011;18810;53.040;8.850;2022-09-01T16:25:42;2.70;;;0.85;;
32333;SDS011;18810;53.040;8.850;2022-09-01T16:28:19;3.83;;;0.80;;
32333;SDS011;18810;53.040;8.850;2022-09-01T16:30:49;0.90;;;0.80;;
32333;SDS011;18810;53.040;8.850;2022-09-01T16:33:17;1.67;;;1.00;;
32333;SDS011;18810;53.040;8.850;2022-09-01T16:36:06;0.70;;;0.70;;
32333;SDS011;18810;53.040;8.850;2022-09-01T16:50:24;0.85;;;0.80;;
32333;SDS011;18810;53.040;8.850;2022-09-01T17:03:55;2.85;;;0.82;;
32333;SDS011;18810;53.040;8.850;2022-09-01T17:06:55;3.28;;;1.20;;